Time;durP1;ratioP1;P1;durP2;ratioP2;P2;SDS_P1;SDS_P2;PMS_P1;PMS_P2;Temp;Humidity;BMP_temperature;BMP_pressure;BME280_temperature;BME280_humidity;BME280_pressure;Samples;Min_cycle;Max_cycle;Signal;HPM_P1;HPM_P2
2021/11/13 00:01:38;;;;;;;18.45;10.43;;;8.50;99.90;;;;;;4138426;28;20565;-70
2021/11/13 00:03:38;;;;;;;15.80;10.02;;;8.50;99.90;;;;;;4138926;28;20034;-70
2021/11/13 00:05:40;;;;;;;16.88;10.65;;;8.50;99.90;;;;;;4138195;28;20037;-70
2021/11/13 00:07:41;;;;;;;16.95;10.18;;;8.50;99.90;;;;;;4137903;28;20038;-70
2021/11/13 00:09:42;;;;;;;15.90;9.90;;;8.50;99.90;;;;;;4138458;28;20108;-70
2021/11/13 00:11:43;;;;;;;20.08;11.40;;;8.40;99.90;;;;;;4137458;28;20037;-70
2021/11/13 00:13:43;;;;;;;17.20;10.88;;;8.30;99.90;;;;;;4138556;28;20034;-70
2021/11/13 00:15:44;;;;;;;16.15;10.27;;;8.30;99.90;;;;;;4138260;28;20033;-70
2021/11/13 00:17:44;;;;;;;16.42;10.15;;;8.30;99.90;;;;;;4137884;28;20034;-70
2021/11/13 00:19:46;;;;;;;16.48;10.13;;;8.30;99.90;;;;;;4137727;28;20022;-70
2021/11/13 00:21:46;;;;;;;18.92;10.63;;;8.30;99.90;;;;;;4137941;28;20042;-70
2021/11/13 00:23:47;;;;;;;20.38;10.60;;;8.30;99.90;;;;;;4138093;28;20026;-70
2021/11/13 00:25:48;;;;;;;18.98;10.73;;;8.30;99.90;;;;;;4137764;28;20082;-70
2021/11/13 00:27:48;;;;;;;16.95;10.45;;;8.20;99.90;;;;;;4137781;28;20748;-70
2021/11/13 00:29:49;;;;;;;19.77;10.60;;;8.30;99.90;;;;;;4120213;28;20510;-70
2021/11/13 00:31:51;;;;;;;16.80;10.23;;;8.20;99.90;;;;;;4138568;28;20037;-71
2021/11/13 00:33:52;;;;;;;15.85;10.25;;;8.20;99.90;;;;;;4120244;28;20109;-70
2021/11/13 00:35:52;;;;;;;18.02;10.45;;;8.10;99.90;;;;;;4137694;28;20033;-70
2021/11/13 00:37:53;;;;;;;17.58;10.68;;;8.10;99.90;;;;;;4138062;28;20026;-70
2021/11/13 00:39:54;;;;;;;20.48;11.35;;;8.10;99.90;;;;;;4137290;28;20033;-70
2021/11/13 00:41:54;;;;;;;18.50;11.18;;;8.10;99.90;;;;;;4137783;28;20037;-70
2021/11/13 00:43:55;;;;;;;18.45;10.63;;;8.00;99.90;;;;;;4137854;28;20034;-70
2021/11/13 00:45:56;;;;;;;17.27;10.75;;;7.90;99.90;;;;;;4133579;28;20119;-71
2021/11/13 00:47:56;;;;;;;18.20;10.48;;;8.00;99.90;;;;;;4137659;28;20038;-70
2021/11/13 00:49:57;;;;;;;18.40;10.98;;;8.00;99.90;;;;;;4136885;28;20029;-71
2021/11/13 00:51:57;;;;;;;18.90;10.70;;;7.90;99.90;;;;;;4137658;28;20501;-71
2021/11/13 00:53:58;;;;;;;16.60;10.45;;;7.90;99.90;;;;;;4137792;28;20057;-70
2021/11/13 00:55:59;;;;;;;18.15;11.43;;;7.90;99.90;;;;;;4120062;28;20126;-71
2021/11/13 00:58:00;;;;;;;23.20;11.98;;;7.80;99.90;;;;;;4137706;28;20026;-71
2021/11/13 01:00:05;;;;;;;18.58;11.52;;;7.80;99.90;;;;;;4136904;28;20042;-71
2021/11/13 01:02:07;;;;;;;20.73;11.82;;;7.70;99.90;;;;;;4137349;28;20034;-71
2021/11/13 01:04:08;;;;;;;18.52;11.52;;;7.70;99.90;;;;;;4137435;28;20037;-71
2021/11/13 01:06:09;;;;;;;16.83;10.10;;;7.70;99.90;;;;;;4132251;28;20490;-71
2021/11/13 01:08:10;;;;;;;19.48;11.70;;;7.70;99.90;;;;;;4137582;28;20057;-71
2021/11/13 01:10:11;;;;;;;18.27;11.27;;;7.60;99.90;;;;;;4136866;28;20049;-71
2021/11/13 01:12:11;;;;;;;19.30;11.57;;;7.70;99.90;;;;;;4136342;28;20057;-71
2021/11/13 01:14:12;;;;;;;19.63;12.13;;;7.60;99.90;;;;;;4137393;28;20029;-71
2021/11/13 01:16:14;;;;;;;17.60;11.02;;;7.60;99.90;;;;;;4119331;28;20050;-71
2021/11/13 01:18:15;;;;;;;16.85;11.27;;;7.70;99.90;;;;;;4120131;28;20042;-71
2021/11/13 01:20:18;;;;;;;20.48;12.32;;;7.70;99.90;;;;;;4136296;28;20059;-71
2021/11/13 01:22:18;;;;;;;;;;;7.60;99.90;;;;;;4137498;28;20112;-71
2021/11/13 01:24:19;;;;;;;20.83;11.93;;;7.60;99.90;;;;;;4137067;28;20321;-71
2021/11/13 01:26:21;;;;;;;28.75;12.73;;;7.60;99.90;;;;;;4136669;28;20121;-71
2021/11/13 01:28:21;;;;;;;18.85;11.77;;;7.50;99.90;;;;;;4137053;28;20628;-71
2021/11/13 01:30:22;;;;;;;20.52;11.43;;;7.50;99.90;;;;;;4136689;28;20081;-71
2021/11/13 01:32:23;;;;;;;22.13;12.50;;;7.50;99.90;;;;;;4119622;28;20173;-71
2021/11/13 01:34:24;;;;;;;20.70;12.18;;;7.50;99.90;;;;;;4136615;28;20458;-71
2021/11/13 01:36:25;;;;;;;23.65;11.88;;;7.50;99.90;;;;;;4132260;28;20060;-72
2021/11/13 01:38:26;;;;;;;20.00;11.68;;;7.50;99.90;;;;;;4137227;28;20129;-71
2021/11/13 01:40:27;;;;;;;18.85;11.15;;;7.50;99.90;;;;;;4136391;28;20068;-71
2021/11/13 01:42:32;;;;;;;21.08;12.52;;;7.50;99.90;;;;;;4119178;28;20030;-71
2021/11/13 01:44:34;;;;;;;20.05;12.80;;;7.50;99.90;;;;;;4132543;28;20561;-71
2021/11/13 01:46:35;;;;;;;23.60;12.83;;;7.50;99.90;;;;;;4135534;28;20073;-71
2021/11/13 01:48:37;;;;;;;19.80;10.88;;;7.40;99.90;;;;;;4119177;28;20506;-71
2021/11/13 01:50:44;;;;;;;21.83;13.32;;;7.50;99.90;;;;;;4135572;28;20338;-71
2021/11/13 01:52:45;;;;;;;20.80;13.35;;;7.40;99.90;;;;;;4135741;28;20712;-71
2021/11/13 01:54:45;;;;;;;22.27;12.52;;;7.50;99.90;;;;;;4136555;28;20034;-71
2021/11/13 01:56:50;;;;;;;19.38;12.30;;;7.40;99.90;;;;;;4136000;28;20482;-71
2021/11/13 01:58:54;;;;;;;22.00;12.15;;;7.50;99.90;;;;;;4119658;28;20050;-71
2021/11/13 02:00:56;;;;;;;20.75;13.25;;;7.50;99.90;;;;;;4136397;28;20108;-71
2021/11/13 02:02:57;;;;;;;20.83;12.50;;;7.50;99.90;;;;;;4136093;28;20040;-71
2021/11/13 02:04:58;;;;;;;20.95;11.98;;;7.50;99.90;;;;;;4118737;28;20121;-71
2021/11/13 02:06:59;;;;;;;19.88;11.52;;;7.40;99.90;;;;;;4136155;28;20607;-71
2021/11/13 02:09:00;;;;;;;21.65;13.23;;;7.40;99.90;;;;;;4136844;28;20041;-71
2021/11/13 02:11:01;;;;;;;18.65;11.90;;;7.40;99.90;;;;;;4136253;28;20397;-71
2021/11/13 02:13:01;;;;;;;21.48;11.35;;;7.40;99.90;;;;;;4136323;28;20067;-71
2021/11/13 02:15:04;;;;;;;20.50;12.40;;;7.40;99.90;;;;;;4136752;28;20042;-71
2021/11/13 02:17:04;;;;;;;21.63;11.88;;;7.50;99.90;;;;;;4136591;28;20070;-71
2021/11/13 02:19:06;;;;;;;21.70;12.00;;;7.50;99.90;;;;;;4136692;28;20053;-71
2021/11/13 02:21:09;;;;;;;21.25;12.60;;;7.50;99.90;;;;;;4136321;28;20437;-71
2021/11/13 02:23:11;;;;;;;18.02;11.65;;;7.50;99.90;;;;;;4136198;28;20036;-71
2021/11/13 02:25:16;;;;;;;21.35;12.52;;;7.50;99.90;;;;;;4136222;28;20393;-71
2021/11/13 02:27:16;;;;;;;19.50;11.48;;;7.50;99.90;;;;;;4135836;28;20099;-71
2021/11/13 02:29:17;;;;;;;20.70;11.18;;;7.50;99.90;;;;;;4136412;28;20037;-71
2021/11/13 02:31:18;;;;;;;20.13;11.50;;;7.50;99.90;;;;;;4118136;28;20118;-71
2021/11/13 02:33:19;;;;;;;20.08;11.00;;;7.50;99.90;;;;;;4136050;28;20701;-71
2021/11/13 02:35:23;;;;;;;17.40;10.80;;;7.50;99.90;;;;;;4118996;28;20046;-71
2021/11/13 02:37:30;;;;;;;20.95;11.65;;;7.60;99.90;;;;;;4137012;28;20040;-71
2021/11/13 02:39:31;;;;;;;17.83;11.02;;;7.60;99.90;;;;;;4136749;28;20038;-71
2021/11/13 02:41:32;;;;;;;18.33;11.63;;;7.60;99.90;;;;;;4132762;28;20065;-71
2021/11/13 02:43:34;;;;;;;21.42;12.75;;;7.60;99.90;;;;;;4136135;28;20034;-72
2021/11/13 02:45:35;;;;;;;18.90;12.05;;;7.70;99.90;;;;;;4118415;28;20588;-71
2021/11/13 02:47:37;;;;;;;15.82;10.50;;;7.70;99.90;;;;;;4119181;28;20038;-72
2021/11/13 02:49:37;;;;;;;21.15;12.13;;;7.70;99.90;;;;;;4136679;28;20575;-71
2021/11/13 02:51:38;;;;;;;19.13;11.77;;;7.70;99.90;;;;;;4135104;28;20026;-71
2021/11/13 02:53:41;;;;;;;18.17;10.52;;;7.70;99.90;;;;;;4136043;28;20045;-71
2021/11/13 02:55:42;;;;;;;19.55;11.18;;;7.70;99.90;;;;;;4136005;28;20042;-71
2021/11/13 02:57:43;;;;;;;17.13;10.35;;;7.70;99.90;;;;;;4138487;28;20037;-71
2021/11/13 02:59:46;;;;;;;18.10;10.68;;;7.70;99.90;;;;;;4138925;28;20056;-71
2021/11/13 03:01:46;;;;;;;19.08;11.82;;;7.70;99.90;;;;;;4139178;28;20041;-71
2021/11/13 03:03:53;;;;;;;18.42;11.13;;;7.70;99.90;;;;;;4139172;28;20437;-72
2021/11/13 03:05:59;;;;;;;14.98;9.95;;;7.80;99.90;;;;;;4138076;28;20041;-71
2021/11/13 03:08:03;;;;;;;19.92;11.25;;;7.80;99.90;;;;;;4121779;28;20137;-71
2021/11/13 03:10:04;;;;;;;20.45;12.82;;;7.80;99.90;;;;;;4121798;28;20038;-71
2021/11/13 03:12:05;;;;;;;20.20;11.15;;;7.80;99.90;;;;;;4121279;28;20567;-71
2021/11/13 03:14:06;;;;;;;19.90;11.07;;;7.80;99.90;;;;;;4106146;28;20053;-72
2021/11/13 03:16:08;;;;;;;20.20;12.13;;;7.80;99.90;;;;;;4139277;28;20104;-72
2021/11/13 03:18:09;;;;;;;19.42;11.30;;;7.90;99.90;;;;;;4122228;28;20482;-72
2021/11/13 03:20:13;;;;;;;19.08;11.20;;;7.90;99.90;;;;;;4138951;28;20052;-72
2021/11/13 03:22:14;;;;;;;19.55;12.10;;;7.90;99.90;;;;;;4138354;28;20595;-71
2021/11/13 03:24:15;;;;;;;19.65;11.98;;;7.90;99.90;;;;;;4121909;28;20030;-72
2021/11/13 03:26:21;;;;;;;20.65;11.85;;;7.90;99.90;;;;;;4137954;28;20045;-72
2021/11/13 03:28:25;;;;;;;19.90;12.10;;;7.90;99.90;;;;;;4139261;28;20088;-72
2021/11/13 03:30:26;;;;;;;22.35;12.95;;;8.00;99.90;;;;;;4138461;28;20116;-72
2021/11/13 03:32:27;;;;;;;18.20;11.60;;;8.00;99.90;;;;;;4138324;28;20498;-72
2021/11/13 03:34:27;;;;;;;17.02;11.02;;;8.00;99.90;;;;;;4138558;28;20092;-72
2021/11/13 03:36:28;;;;;;;18.60;11.05;;;8.00;99.90;;;;;;4137926;28;20073;-72
2021/11/13 03:38:28;;;;;;;17.58;10.85;;;8.00;99.90;;;;;;4138967;28;20026;-72
2021/11/13 03:40:29;;;;;;;17.10;10.88;;;8.00;99.90;;;;;;4137894;28;20038;-72
2021/11/13 03:42:31;;;;;;;17.98;11.73;;;8.00;99.90;;;;;;4138359;28;20038;-72
2021/11/13 03:44:32;;;;;;;18.27;11.75;;;8.10;99.90;;;;;;4138449;28;20037;-72
2021/11/13 03:46:33;;;;;;;19.20;11.80;;;8.10;99.90;;;;;;4137926;28;20359;-72
2021/11/13 03:48:34;;;;;;;17.25;10.77;;;8.10;99.90;;;;;;4138153;28;20088;-72
2021/11/13 03:50:35;;;;;;;18.35;11.57;;;8.10;99.90;;;;;;4138048;28;20022;-72
2021/11/13 03:52:36;;;;;;;19.63;11.50;;;8.10;99.90;;;;;;4120718;28;20072;-73
2021/11/13 03:54:37;;;;;;;18.05;10.65;;;8.20;99.90;;;;;;4120854;28;20034;-72
2021/11/13 03:56:37;;;;;;;18.67;11.82;;;8.20;99.90;;;;;;4116044;28;20078;-72
2021/11/13 03:58:38;;;;;;;15.30;10.43;;;8.20;99.90;;;;;;4138542;28;20036;-72
2021/11/13 04:00:39;;;;;;;19.60;10.90;;;8.20;99.90;;;;;;4120675;28;20027;-72
2021/11/13 04:02:43;;;;;;;19.63;12.38;;;8.30;99.90;;;;;;4138097;28;20034;-72
2021/11/13 04:04:44;;;;;;;21.40;12.02;;;8.30;99.90;;;;;;4133409;28;20116;-72
2021/11/13 04:06:44;;;;;;;18.63;11.60;;;8.30;99.90;;;;;;4137777;28;20381;-72
2021/11/13 04:08:45;;;;;;;21.20;12.73;;;8.30;99.90;;;;;;4137207;28;20033;-72
2021/11/13 04:10:46;;;;;;;19.08;10.88;;;8.30;99.90;;;;;;4119555;28;20118;-73
2021/11/13 04:12:47;;;;;;;16.23;10.30;;;8.30;99.90;;;;;;4138155;28;20033;-73
2021/11/13 04:14:47;;;;;;;26.08;12.27;;;8.30;99.90;;;;;;4137660;28;20037;-73
2021/11/13 04:16:48;;;;;;;17.17;11.02;;;8.30;99.90;;;;;;4137996;28;20033;-73
2021/11/13 04:18:49;;;;;;;17.20;10.55;;;8.30;99.90;;;;;;4137839;28;20029;-72
2021/11/13 04:20:49;;;;;;;19.88;11.48;;;8.40;99.90;;;;;;4136438;28;20026;-72
2021/11/13 04:22:51;;;;;;;17.83;11.00;;;8.40;99.90;;;;;;4136981;28;20030;-73
2021/11/13 04:24:51;;;;;;;18.60;11.65;;;8.40;99.90;;;;;;4136685;28;20045;-72
2021/11/13 04:26:52;;;;;;;17.95;10.95;;;8.40;99.90;;;;;;4116271;28;20031;-72
2021/11/13 04:28:53;;;;;;;18.33;11.55;;;8.40;99.90;;;;;;4132919;28;20045;-73
2021/11/13 04:30:54;;;;;;;18.65;10.98;;;8.40;99.90;;;;;;4132344;28;20042;-72
2021/11/13 04:32:54;;;;;;;21.75;11.80;;;8.40;99.90;;;;;;4133478;28;20038;-73
2021/11/13 04:36:59;;;;;;;18.45;11.20;;;8.40;99.90;;;;;;4132405;28;20041;-72
2021/11/13 04:39:00;;;;;;;15.38;10.65;;;8.40;99.90;;;;;;4095878;28;20062;-73
2021/11/13 04:41:03;;;;;;;17.90;10.73;;;8.40;99.90;;;;;;4112710;28;20043;-72
2021/11/13 04:43:04;;;;;;;20.65;10.85;;;8.50;99.90;;;;;;4133829;28;20054;-73
2021/11/13 04:45:06;;;;;;;15.43;10.52;;;8.40;99.90;;;;;;4130928;28;20539;-73
2021/11/13 04:47:07;;;;;;;15.03;9.60;;;8.40;99.90;;;;;;4138055;28;20108;-72
2021/11/13 04:49:08;;;;;;;16.27;10.00;;;8.40;99.90;;;;;;4137200;28;20045;-73
2021/11/13 04:57:03;;;;;;;17.67;11.23;;;8.50;99.90;;;;;;4120879;28;20034;-73
2021/11/13 04:59:04;;;;;;;22.55;12.25;;;8.50;99.90;;;;;;4120131;28;20038;-73
2021/11/13 05:01:04;;;;;;;14.90;10.30;;;8.50;99.90;;;;;;4137365;28;20049;-72
2021/11/13 05:03:05;;;;;;;20.13;11.40;;;8.50;99.90;;;;;;4137427;28;20068;-73
2021/11/13 05:05:07;;;;;;;17.63;10.75;;;8.50;99.90;;;;;;4121140;28;20044;-73
2021/11/13 05:07:08;;;;;;;18.08;10.88;;;8.50;99.90;;;;;;4135982;28;20154;-73
2021/11/13 05:09:08;;;;;;;20.83;12.23;;;8.50;99.90;;;;;;4135371;28;20061;-73
2021/11/13 05:11:09;;;;;;;18.83;12.20;;;8.50;99.90;;;;;;4137897;28;20038;-73
2021/11/13 05:13:12;;;;;;;19.70;12.80;;;8.50;99.90;;;;;;4136955;28;20100;-73
2021/11/13 05:15:13;;;;;;;;;;;8.50;99.90;;;;;;4137578;28;20034;-73
2021/11/13 05:17:13;;;;;;;20.08;11.88;;;8.50;99.90;;;;;;4137011;28;19952;-73
2021/11/13 05:19:14;;;;;;;20.25;12.00;;;8.50;99.90;;;;;;4137837;28;20034;-72
2021/11/13 05:21:15;;;;;;;20.48;12.30;;;8.50;99.90;;;;;;4137556;28;20036;-73
2021/11/13 05:23:15;;;;;;;17.40;10.57;;;8.50;99.90;;;;;;4121209;28;20026;-73
2021/11/13 05:25:19;;;;;;;19.40;12.00;;;8.60;99.90;;;;;;4137202;28;20052;-73
2021/11/13 05:27:20;;;;;;;21.33;12.75;;;8.60;99.90;;;;;;4122658;28;20057;-73
2021/11/13 05:29:20;;;;;;;20.08;11.95;;;8.50;99.90;;;;;;4132675;28;20811;-73
2021/11/13 05:31:21;;;;;;;21.77;12.80;;;8.60;99.90;;;;;;4136647;28;20753;-73
2021/11/13 05:33:22;;;;;;;18.20;11.50;;;8.60;99.90;;;;;;4136193;28;20032;-72
2021/11/13 05:35:23;;;;;;;18.60;11.30;;;8.60;99.90;;;;;;4136722;28;20226;-72
2021/11/13 05:37:24;;;;;;;18.38;11.80;;;8.60;99.90;;;;;;4136411;28;20266;-72
2021/11/13 05:39:24;;;;;;;17.55;11.02;;;8.70;99.90;;;;;;4136942;28;20048;-72
2021/11/13 05:41:25;;;;;;;20.58;11.93;;;8.70;99.90;;;;;;4137223;28;20077;-72
2021/11/13 05:43:25;;;;;;;20.92;12.20;;;8.70;99.90;;;;;;4135830;28;20037;-72
2021/11/13 05:45:26;;;;;;;18.90;11.88;;;8.70;99.90;;;;;;4107255;28;20050;-72
2021/11/13 05:47:26;;;;;;;20.25;12.18;;;8.70;99.90;;;;;;4124359;28;20034;-72
2021/11/13 05:49:27;;;;;;;18.73;12.00;;;8.70;99.90;;;;;;4136354;28;20630;-72
2021/11/13 05:51:28;;;;;;;17.88;11.32;;;8.70;99.90;;;;;;4136026;28;20030;-72
2021/11/13 05:53:29;;;;;;;17.98;11.98;;;8.80;99.90;;;;;;4131662;28;20053;-72
2021/11/13 05:55:29;;;;;;;16.73;10.52;;;8.80;99.90;;;;;;4132797;28;20030;-72
2021/11/13 05:57:30;;;;;;;16.38;11.30;;;8.80;99.90;;;;;;4134349;28;20405;-72
2021/11/13 05:59:30;;;;;;;22.27;12.10;;;8.70;99.90;;;;;;4120517;28;20045;-72
2021/11/13 06:01:32;;;;;;;20.52;11.30;;;8.80;99.90;;;;;;4136544;28;20038;-72
2021/11/13 06:03:32;;;;;;;19.45;12.02;;;8.80;99.90;;;;;;4136083;28;20668;-72
2021/11/13 06:05:33;;;;;;;19.85;12.40;;;8.80;99.90;;;;;;4135863;28;20042;-72
2021/11/13 06:07:34;;;;;;;20.38;12.77;;;8.80;99.90;;;;;;4118821;28;20053;-72
2021/11/13 06:09:34;;;;;;;18.45;11.43;;;8.80;99.90;;;;;;4136320;28;20606;-72
2021/11/13 06:11:35;;;;;;;23.13;13.55;;;8.80;99.90;;;;;;4136502;28;20034;-72
2021/11/13 06:13:36;;;;;;;19.50;11.32;;;8.80;99.90;;;;;;4135872;28;20046;-73
2021/11/13 06:15:36;;;;;;;20.05;11.50;;;8.80;99.90;;;;;;4136753;28;20038;-72
2021/11/13 06:17:38;;;;;;;18.30;11.70;;;8.80;99.90;;;;;;4136584;28;20057;-72
2021/11/13 06:19:38;;;;;;;19.27;12.02;;;8.80;99.90;;;;;;4136883;28;20042;-72
2021/11/13 06:21:39;;;;;;;16.42;11.10;;;8.80;99.90;;;;;;4136201;28;20442;-72
2021/11/13 06:23:45;;;;;;;17.70;11.45;;;8.90;99.90;;;;;;4128438;28;20482;-72
2021/11/13 06:25:45;;;;;;;18.55;11.93;;;8.90;99.90;;;;;;4137184;28;20046;-72
2021/11/13 06:27:46;;;;;;;21.85;12.68;;;8.90;99.90;;;;;;4134424;28;20038;-72
2021/11/13 06:29:47;;;;;;;20.55;12.40;;;8.90;99.90;;;;;;4118324;28;20054;-73
2021/11/13 06:31:48;;;;;;;20.00;12.13;;;8.90;99.90;;;;;;4135394;28;20096;-72
2021/11/13 06:33:48;;;;;;;18.00;12.32;;;8.80;99.90;;;;;;4133719;28;20058;-72
2021/11/13 06:35:49;;;;;;;21.08;13.75;;;8.80;99.90;;;;;;4117845;28;20362;-72
2021/11/13 06:37:49;;;;;;;19.90;12.55;;;8.80;99.90;;;;;;4132025;28;20034;-72
2021/11/13 06:39:50;;;;;;;20.70;12.48;;;8.80;99.90;;;;;;4118642;28;20116;-72
2021/11/13 06:41:51;;;;;;;20.77;13.07;;;8.90;99.90;;;;;;4132004;28;20093;-72
2021/11/13 06:43:52;;;;;;;17.80;11.27;;;8.80;99.90;;;;;;4116773;28;20027;-72
2021/11/13 06:45:53;;;;;;;17.90;12.20;;;8.90;99.90;;;;;;4135567;28;20037;-72
2021/11/13 06:47:53;;;;;;;20.33;12.65;;;8.90;99.90;;;;;;4120075;28;20560;-72
2021/11/13 06:49:54;;;;;;;19.98;12.10;;;8.80;99.90;;;;;;4135485;28;20030;-75
2021/11/13 06:51:55;;;;;;;18.48;11.85;;;8.90;99.90;;;;;;4114327;28;20444;-75
2021/11/13 06:53:55;;;;;;;19.10;11.95;;;8.90;99.90;;;;;;4135396;28;20093;-75
2021/11/13 06:55:56;;;;;;;18.05;11.95;;;8.90;99.90;;;;;;4118246;28;20384;-76
2021/11/13 06:57:57;;;;;;;21.23;11.85;;;8.90;99.90;;;;;;4133927;28;20038;-73
2021/11/13 06:59:57;;;;;;;19.55;12.48;;;8.90;99.90;;;;;;4136493;28;20034;-73
2021/11/13 07:01:58;;;;;;;21.80;13.07;;;8.90;99.90;;;;;;4132264;28;20081;-74
2021/11/13 07:03:59;;;;;;;19.15;11.60;;;8.90;99.90;;;;;;4133397;28;20524;-73
2021/11/13 07:05:59;;;;;;;17.08;11.68;;;8.90;99.90;;;;;;4136847;28;20042;-74
2021/11/13 07:08:00;;;;;;;16.92;11.65;;;9.00;99.90;;;;;;4135938;28;20484;-74
2021/11/13 07:10:12;;;;;;;19.02;11.25;;;9.00;99.90;;;;;;4119639;28;20100;-74
2021/11/13 07:12:12;;;;;;;14.98;10.63;;;9.00;99.90;;;;;;4121012;28;20034;-74
2021/11/13 07:14:13;;;;;;;20.75;12.82;;;9.00;99.90;;;;;;4134479;28;20038;-74
2021/11/13 07:16:13;;;;;;;18.30;11.60;;;9.00;99.90;;;;;;4123725;28;20030;-74
2021/11/13 07:18:14;;;;;;;18.83;11.68;;;9.00;99.90;;;;;;4133905;28;20042;-74
2021/11/13 07:20:15;;;;;;;19.65;12.70;;;9.00;99.90;;;;;;4118156;28;20030;-74
2021/11/13 07:22:16;;;;;;;20.30;12.85;;;9.00;99.90;;;;;;4114746;28;20481;-74
2021/11/13 07:24:18;;;;;;;17.98;11.73;;;9.00;99.90;;;;;;4108660;28;20050;-74
2021/11/13 07:26:18;;;;;;;18.65;11.20;;;9.00;99.90;;;;;;4129042;28;20030;-74
2021/11/13 07:28:32;;;;;;;19.33;12.20;;;9.00;99.90;;;;;;4114744;28;20035;-74
2021/11/13 07:30:40;;;;;;;19.05;12.07;;;9.10;99.90;;;;;;4115004;28;20506;-74
2021/11/13 07:32:41;;;;;;;18.83;11.98;;;9.00;99.90;;;;;;4130842;28;20030;-74
2021/11/13 07:34:42;;;;;;;20.38;12.48;;;9.10;99.90;;;;;;4117671;28;20053;-74
2021/11/13 07:36:43;;;;;;;16.42;10.75;;;9.00;99.90;;;;;;4135828;28;20679;-74
2021/11/13 07:38:44;;;;;;;16.85;11.57;;;9.10;99.90;;;;;;4117770;28;20034;-74
2021/11/13 07:40:44;;;;;;;18.38;11.05;;;9.10;99.90;;;;;;4135271;28;20018;-74
2021/11/13 07:42:45;;;;;;;19.33;11.50;;;9.10;99.90;;;;;;4115268;28;20530;-74
2021/11/13 07:44:47;;;;;;;21.15;12.07;;;9.10;99.90;;;;;;4138482;28;20046;-74
2021/11/13 07:46:48;;;;;;;18.25;11.20;;;9.10;99.90;;;;;;4136854;28;20095;-75
2021/11/13 07:48:48;;;;;;;16.05;11.13;;;9.10;99.90;;;;;;4122939;28;20125;-74
2021/11/13 07:50:49;;;;;;;16.50;10.90;;;9.10;99.90;;;;;;4138373;28;20441;-74
2021/11/13 07:52:50;;;;;;;21.25;11.32;;;9.10;99.90;;;;;;4133508;28;20041;-74
2021/11/13 07:54:50;;;;;;;16.30;10.85;;;9.10;99.90;;;;;;4134729;28;20477;-74
2021/11/13 07:56:51;;;;;;;17.65;10.38;;;9.10;99.90;;;;;;4135520;28;20030;-74
2021/11/13 07:58:52;;;;;;;16.88;10.30;;;9.20;99.90;;;;;;4134767;28;20042;-75
2021/11/13 08:00:53;;;;;;;17.38;11.55;;;9.10;99.90;;;;;;4121531;28;20049;-74
2021/11/13 08:02:54;;;;;;;15.77;10.00;;;9.20;99.90;;;;;;4122219;28;20034;-74
2021/11/13 08:04:55;;;;;;;16.40;9.75;;;9.20;99.90;;;;;;4131509;28;20042;-74
2021/11/13 08:06:56;;;;;;;17.52;10.77;;;9.20;99.90;;;;;;4137353;28;20044;-74
2021/11/13 08:08:56;;;;;;;17.88;9.75;;;9.20;99.90;;;;;;4134046;28;20044;-74
2021/11/13 08:10:58;;;;;;;13.90;9.48;;;9.30;99.90;;;;;;4138550;28;20033;-74
2021/11/13 08:12:58;;;;;;;17.55;10.57;;;9.30;99.90;;;;;;4134812;28;20036;-74
2021/11/13 08:14:59;;;;;;;15.95;9.60;;;9.30;99.90;;;;;;4137853;28;20038;-74
2021/11/13 08:17:00;;;;;;;15.38;9.43;;;9.30;99.90;;;;;;4137770;28;20037;-74
2021/11/13 08:19:00;;;;;;;16.52;9.48;;;9.30;99.90;;;;;;4125987;28;20132;-74
2021/11/13 08:21:02;;;;;;;13.98;8.93;;;9.40;99.90;;;;;;4138821;28;20501;-75
2021/11/13 08:23:04;;;;;;;13.83;8.67;;;9.30;99.90;;;;;;4134085;28;20044;-74
2021/11/13 08:25:09;;;;;;;17.77;10.10;;;9.40;99.90;;;;;;4119616;28;20353;-75
2021/11/13 08:27:10;;;;;;;11.77;8.18;;;9.40;99.90;;;;;;4138311;28;20048;-74
2021/11/13 08:29:11;;;;;;;13.07;8.38;;;9.40;99.90;;;;;;4133350;28;20037;-71
2021/11/13 08:31:12;;;;;;;13.35;9.60;;;9.50;99.90;;;;;;4136923;28;20108;-71
2021/11/13 08:33:13;;;;;;;13.52;9.43;;;9.50;99.90;;;;;;4133189;28;20038;-71
2021/11/13 08:35:15;;;;;;;13.00;8.95;;;9.50;99.90;;;;;;4139019;28;20508;-71
2021/11/13 08:37:16;;;;;;;13.25;8.45;;;9.50;99.90;;;;;;4120658;28;20034;-72
2021/11/13 08:39:16;;;;;;;14.43;9.25;;;9.50;99.90;;;;;;4137038;28;20635;-72
2021/11/13 08:41:17;;;;;;;14.57;8.15;;;9.50;99.90;;;;;;4134117;28;20056;-72
2021/11/13 08:43:19;;;;;;;14.82;8.75;;;9.60;99.90;;;;;;4119033;28;20034;-72
2021/11/13 08:45:20;;;;;;;12.70;8.00;;;9.60;99.90;;;;;;4117775;28;20109;-72
2021/11/13 08:47:20;;;;;;;12.98;8.13;;;9.60;99.90;;;;;;4137179;28;20034;-72
2021/11/13 08:49:23;;;;;;;14.52;8.70;;;9.60;99.90;;;;;;4135666;28;20049;-72
2021/11/13 08:51:23;;;;;;;11.88;8.43;;;9.70;99.90;;;;;;4138060;28;20046;-72
2021/11/13 08:53:24;;;;;;;15.25;9.60;;;9.70;99.90;;;;;;4130789;28;20073;-72
2021/11/13 08:55:28;;;;;;;14.30;8.68;;;9.70;99.90;;;;;;4122138;28;20137;-72
2021/11/13 08:57:29;;;;;;;12.43;8.00;;;9.70;99.90;;;;;;4120402;28;20536;-72
2021/11/13 08:59:30;;;;;;;12.75;8.68;;;9.70;99.90;;;;;;4119815;28;20065;-72
2021/11/13 09:01:32;;;;;;;14.10;8.75;;;9.70;99.90;;;;;;4134669;28;20048;-71
2021/11/13 09:03:37;;;;;;;11.50;7.53;;;9.80;99.90;;;;;;4138450;28;20041;-73
2021/11/13 09:05:39;;;;;;;13.02;8.10;;;9.80;99.90;;;;;;4123064;28;20041;-72
2021/11/13 09:07:39;;;;;;;12.75;7.68;;;9.80;99.90;;;;;;4137727;28;20056;-71
2021/11/13 09:09:40;;;;;;;13.25;8.50;;;9.80;99.90;;;;;;4137552;28;20033;-72
2021/11/13 09:11:42;;;;;;;12.27;8.63;;;9.80;99.90;;;;;;4122575;28;20105;-72
2021/11/13 09:13:43;;;;;;;12.50;8.10;;;9.80;99.90;;;;;;4116950;28;20038;-71
2021/11/13 09:15:44;;;;;;;12.35;7.80;;;9.80;99.90;;;;;;4134144;28;20033;-72
2021/11/13 09:17:45;;;;;;;12.60;7.60;;;9.90;99.90;;;;;;4133937;28;20033;-72
2021/11/13 09:19:47;;;;;;;12.60;8.35;;;9.90;99.90;;;;;;4099077;28;20051;-72
2021/11/13 09:21:48;;;;;;;12.18;7.38;;;9.90;99.90;;;;;;4138062;28;20044;-72
2021/11/13 09:23:48;;;;;;;11.48;7.80;;;9.90;99.90;;;;;;4138301;28;20038;-72
2021/11/13 09:25:49;;;;;;;10.68;6.57;;;10.00;99.90;;;;;;4137224;28;20617;-72
2021/11/13 09:27:51;;;;;;;11.00;7.53;;;10.00;99.90;;;;;;4135951;28;20065;-72
2021/11/13 09:29:52;;;;;;;11.95;7.57;;;10.00;99.90;;;;;;4120201;28;20077;-72
2021/11/13 09:31:52;;;;;;;11.20;7.55;;;10.10;99.90;;;;;;4138068;28;20042;-72
2021/11/13 09:33:53;;;;;;;9.98;6.80;;;10.10;99.90;;;;;;4136778;28;20034;-72
2021/11/13 09:35:55;;;;;;;11.65;7.53;;;10.10;99.90;;;;;;4136063;28;20749;-72
2021/11/13 09:37:56;;;;;;;12.02;7.25;;;10.10;99.90;;;;;;4137663;28;20125;-72
2021/11/13 09:39:58;;;;;;;8.55;6.25;;;10.10;99.90;;;;;;4135551;28;20108;-72
2021/11/13 09:42:00;;;;;;;9.45;6.38;;;10.10;99.90;;;;;;4121169;28;20491;-72
2021/11/13 09:44:01;;;;;;;;;;;10.20;99.90;;;;;;4134445;28;20026;-72
2021/11/13 09:46:05;;;;;;;9.82;6.43;;;10.20;99.90;;;;;;4136910;28;19952;-72
2021/11/13 09:48:05;;;;;;;9.13;6.25;;;10.20;99.90;;;;;;4132603;28;20042;-72
2021/11/13 09:50:07;;;;;;;11.23;6.65;;;10.30;99.90;;;;;;4134773;28;20040;-72
2021/11/13 09:52:10;;;;;;;10.43;6.03;;;10.30;99.90;;;;;;4135783;28;20037;-72
2021/11/13 09:54:10;;;;;;;9.95;6.18;;;10.30;99.90;;;;;;4114218;28;20053;-72
2021/11/13 09:56:11;;;;;;;9.57;6.55;;;10.30;99.90;;;;;;4134877;28;20034;-72
2021/11/13 09:58:12;;;;;;;11.43;6.47;;;10.40;99.90;;;;;;4137016;28;20042;-73
2021/11/13 10:00:16;;;;;;;10.88;6.72;;;10.40;99.90;;;;;;4118727;28;20743;-72
2021/11/13 10:02:17;;;;;;;10.75;6.90;;;10.40;99.90;;;;;;4113639;28;20035;-72
2021/11/13 10:04:18;;;;;;;10.40;6.80;;;10.40;99.90;;;;;;4135759;28;20141;-72
2021/11/13 10:06:18;;;;;;;13.48;6.90;;;10.50;99.90;;;;;;4136816;28;20137;-73
2021/11/13 10:08:20;;;;;;;9.88;6.93;;;10.50;99.90;;;;;;4118448;28;20022;-72
2021/11/13 10:10:39;;;;;;;12.20;7.05;;;10.50;99.90;;;;;;4117311;28;20031;-72
2021/11/13 10:12:42;;;;;;;10.88;6.95;;;10.50;99.90;;;;;;4135573;28;20505;-72
2021/11/13 10:14:43;;;;;;;14.27;7.80;;;10.50;99.90;;;;;;4135790;28;20053;-72
2021/11/13 10:16:49;;;;;;;10.48;6.70;;;10.50;99.90;;;;;;4136970;28;20133;-72
2021/11/13 10:18:52;;;;;;;8.57;6.15;;;10.60;99.90;;;;;;4138363;28;20034;-72
2021/11/13 10:21:01;;;;;;;10.18;6.30;;;10.60;99.90;;;;;;4116265;28;20097;-72
2021/11/13 10:23:01;;;;;;;8.40;5.85;;;10.60;99.90;;;;;;4135965;28;20034;-72
2021/11/13 10:25:14;;;;;;;8.00;5.53;;;10.60;99.90;;;;;;4113331;28;20646;-72
2021/11/13 10:27:16;;;;;;;9.40;6.25;;;10.60;99.90;;;;;;4132306;28;20046;-72
2021/11/13 10:29:26;;;;;;;9.75;6.18;;;10.70;99.90;;;;;;4118901;28;20566;-72
2021/11/13 10:31:37;;;;;;;9.88;6.53;;;10.70;99.90;;;;;;4136603;28;20056;-72
2021/11/13 10:33:38;;;;;;;9.68;6.22;;;10.70;99.90;;;;;;4118143;28;20038;-72
2021/11/13 10:35:49;;;;;;;9.35;5.82;;;10.80;99.90;;;;;;4135018;28;20127;-72